Portada
METAR-TAF:

METAR-TAF

Aeroports :

Lucknow, Índia

latitud: 26-45N, longitud: 080-53E, altitud: 122 m

Observació

L'informe es va fer fa 39 minuts, a les 19:30 UTC
Vent calma
Temperatura 24°C
Humitat 89%
Pressió 1014 hPa
Visibilitat: 3000 m
boirina

METAR: VILK 161930Z 00000KT 3000 BR NSC 24/22 Q1014 NOSIG

Hora: 01:39 (20:09 UTC)

Pronòstic

L'informe es va fer fa 3 hores i 9 minuts, a les 17:00 UTC
Pronòstic vàlid del 16 a les 18 UTC al 17 a les 24 UTC
Vent kt del Nord
Visibilitat: 3000 m
boirina
Evolucionant progressivament
l' 17 a les 00 UTC al 17 a les 02 UTC
Visibilitat: 1500 m
Escasses núvols a una alçada de 10000 ft
boirina, Boira superficial
Evolucionant progressivament
l' 17 a les 08 UTC al 17 a les 10 UTC
Vent 4 kt del Sud-Est
Visibilitat: 5000 m
Escasses núvols a una alçada de 2500 ft
Núvols disperses a una alçada de 10000 ft
calitja

TAF: VILK 161700Z 1618/1724 00000KT 3000 BR NSC BECMG 1700/1702 1500 BR MIFG FEW100 BECMG 1708/1710 14004KT 5000 HZ FEW025 SCT100

Observacions i pronòstics meteorològics de més de 4000 aeroports (METAR i TAF).

Les estacions disponibles són els punts grocs i vermells al mapa.

Posi el ratolí al punt desitjat per veure el nom de l'estació.

Feu clic per veure les observacions i els pronòstics meteorològics.

Per canviar el mapa: feu clic els botons verds amb una creu de color negre per apropar; al botó verd amb un guió per allunyar la imatge; o en les fletxes verdes per a mapes adjacents.


METAR-TAF: